createdAt,value
2019-03-01T00:01:30.330Z,97205.00
2019-03-01T00:03:57.289Z,97218.00
2019-03-01T00:06:31.138Z,97205.00
2019-03-01T00:08:58.085Z,97208.00
2019-03-01T00:11:25.033Z,97202.00
2019-03-01T00:13:58.871Z,97204.00
2019-03-01T00:16:25.812Z,97200.00
2019-03-01T00:19:01.947Z,97207.00
2019-03-01T00:21:28.899Z,97198.00
2019-03-01T00:24:01.945Z,97185.00
2019-03-01T00:26:28.898Z,97180.00
2019-03-01T00:29:02.124Z,97192.00
2019-03-01T00:31:29.072Z,97192.00
2019-03-01T00:34:03.175Z,97184.00
2019-03-01T00:36:30.103Z,97182.00
2019-03-01T00:39:04.212Z,97183.00
2019-03-01T00:41:31.165Z,97179.00
2019-03-01T00:44:04.925Z,97174.00
2019-03-01T00:46:31.892Z,97175.00
2019-03-01T00:49:05.817Z,97180.00
2019-03-01T00:51:32.758Z,97173.00
2019-03-01T00:54:06.586Z,97175.00
2019-03-01T00:56:33.545Z,97165.00
2019-03-01T01:01:32.991Z,97166.00
2019-03-01T01:04:06.315Z,97159.00
2019-03-01T01:06:33.268Z,97165.00
2019-03-01T01:09:07.947Z,97172.00
2019-03-01T01:11:34.914Z,97160.00
2019-03-01T01:14:08.888Z,97161.00
2019-03-01T01:16:35.857Z,97163.00
2019-03-01T01:19:09.739Z,97145.00
2019-03-01T01:21:36.692Z,97144.00
2019-03-01T01:24:09.966Z,97151.00
2019-03-01T01:26:43.463Z,97149.00
2019-03-01T01:29:17.044Z,97153.00
2019-03-01T01:31:43.987Z,97137.00
2019-03-01T01:34:17.956Z,97145.00
2019-03-01T01:36:44.894Z,97136.00
2019-03-01T01:39:11.847Z,97136.00
2019-03-01T01:41:45.265Z,97129.00
2019-03-01T01:44:12.224Z,97114.00
2019-03-01T01:46:46.293Z,97123.00
2019-03-01T01:49:13.217Z,97129.00
2019-03-01T01:51:46.289Z,97119.00
2019-03-01T02:15:07.481Z,97095.00
2019-03-01T02:17:34.428Z,97110.00
2019-03-01T02:20:07.799Z,97110.00
2019-03-01T02:22:34.747Z,97095.00
2019-03-01T02:25:08.711Z,97103.00
2019-03-01T02:27:35.671Z,97079.00
2019-03-01T02:30:03.328Z,97089.00
2019-03-01T02:32:36.745Z,97088.00
2019-03-01T02:35:03.699Z,97087.00
2019-03-01T02:37:37.704Z,97081.00
2019-03-01T02:40:04.671Z,97079.00
2019-03-01T02:42:37.987Z,97069.00
2019-03-01T02:45:04.913Z,97073.00
2019-03-01T02:47:39.707Z,97082.00
2019-03-01T02:50:06.673Z,97067.00
2019-03-01T02:52:39.747Z,97066.00
2019-03-01T02:55:06.683Z,97059.00
2019-03-01T02:57:40.603Z,97067.00
2019-03-01T03:00:07.556Z,97052.00
2019-03-01T03:02:41.598Z,97056.00
2019-03-01T03:05:15.269Z,97065.00
2019-03-01T03:07:48.770Z,97054.00
2019-03-01T03:10:15.709Z,97055.00
2019-03-01T03:12:49.512Z,97051.00
2019-03-01T03:15:16.445Z,97038.00
2019-03-01T03:17:49.919Z,97040.00
2019-03-01T03:20:22.962Z,97051.00
2019-03-01T03:22:56.613Z,97041.00
2019-03-01T03:25:23.581Z,97032.00
2019-03-01T03:27:56.940Z,97034.00
2019-03-01T03:30:23.897Z,97033.00
2019-03-01T03:32:57.751Z,97024.00
2019-03-01T03:35:24.695Z,97017.00
2019-03-01T03:37:58.574Z,97036.00
2019-03-01T03:40:25.518Z,97027.00
2019-03-01T03:42:58.687Z,97033.00
2019-03-01T03:45:33.377Z,97033.00
2019-03-01T03:48:06.970Z,97029.00
2019-03-01T03:50:33.941Z,97037.00
2019-03-01T03:53:07.814Z,97034.00
2019-03-01T03:55:34.740Z,97029.00
2019-03-01T03:58:07.959Z,97030.00
2019-03-01T04:00:34.913Z,97027.00
2019-03-01T04:03:09.041Z,97023.00
2019-03-01T04:05:35.990Z,97027.00
2019-03-01T04:08:09.919Z,97027.00
2019-03-01T04:10:36.861Z,97015.00
2019-03-01T04:13:10.898Z,97019.00
2019-03-01T04:15:37.845Z,97025.00
2019-03-01T04:18:11.566Z,97021.00
2019-03-01T04:20:38.508Z,97019.00
2019-03-01T04:25:47.653Z,97016.00
2019-03-01T04:28:21.359Z,96996.00
2019-03-01T04:30:48.304Z,97009.00
2019-03-01T04:33:22.043Z,97018.00
2019-03-01T04:35:48.994Z,97000.00
2019-03-01T04:38:15.932Z,96993.00
2019-03-01T04:40:49.714Z,97010.00
2019-03-01T04:43:16.658Z,97005.00
2019-03-01T04:45:50.006Z,96997.00
2019-03-01T04:48:16.932Z,96992.00
2019-03-01T04:50:50.731Z,96984.00
2019-03-01T04:53:17.681Z,96996.00
2019-03-01T04:55:50.791Z,97002.00
2019-03-01T04:58:24.476Z,97008.00
2019-03-01T05:00:57.808Z,96987.00
2019-03-01T05:03:24.755Z,96985.00
2019-03-01T05:05:58.819Z,96988.00
2019-03-01T05:08:25.743Z,96974.00
2019-03-01T05:10:59.596Z,96984.00
2019-03-01T05:13:33.280Z,96984.00
2019-03-01T05:16:06.807Z,96974.00
2019-03-01T05:18:33.742Z,96981.00
2019-03-01T05:21:06.863Z,96989.00
2019-03-01T05:23:40.512Z,96981.00
2019-03-01T05:26:14.323Z,96986.00
2019-03-01T05:28:41.251Z,96985.00
2019-03-01T05:31:14.543Z,96980.00
2019-03-01T05:33:41.493Z,96986.00
2019-03-01T05:36:14.570Z,96984.00
2019-03-01T05:38:41.526Z,96998.00
2019-03-01T05:41:15.085Z,96990.00
2019-03-01T05:43:42.021Z,96989.00
2019-03-01T05:46:15.965Z,96985.00
2019-03-01T05:48:42.910Z,96991.00
2019-03-01T05:51:16.227Z,96992.00
2019-03-01T05:53:43.168Z,96990.00
2019-03-01T05:56:16.503Z,97008.00
2019-03-01T05:58:43.448Z,97019.00
2019-03-01T06:01:17.093Z,97006.00
2019-03-01T06:03:44.044Z,97008.00
2019-03-01T06:06:17.401Z,97007.00
2019-03-01T06:08:44.344Z,97011.00
2019-03-01T06:11:18.168Z,97004.00
2019-03-01T06:13:45.124Z,97020.00
2019-03-01T06:16:18.981Z,97029.00
2019-03-01T06:18:45.927Z,97017.00
2019-03-01T06:21:19.731Z,97013.00
2019-03-01T06:23:46.675Z,97013.00
2019-03-01T06:26:20.010Z,97018.00
2019-03-01T06:28:46.951Z,97017.00
2019-03-01T06:31:20.174Z,97017.00
2019-03-01T06:33:53.849Z,97030.00
2019-03-01T06:36:28.404Z,97026.00
2019-03-01T06:38:55.346Z,97019.00
2019-03-01T06:41:28.513Z,97029.00
2019-03-01T06:43:55.449Z,97013.00
2019-03-01T06:46:22.399Z,97024.00
2019-03-01T06:48:57.330Z,97018.00
2019-03-01T06:51:28.895Z,97028.00
2019-03-01T06:53:59.168Z,97024.00
2019-03-01T06:56:26.120Z,97037.00
2019-03-01T06:59:00.233Z,97023.00
2019-03-01T07:01:27.173Z,97035.00
2019-03-01T07:04:00.933Z,97023.00
2019-03-01T07:06:27.887Z,97039.00
2019-03-01T07:09:01.163Z,97045.00
2019-03-01T07:11:28.120Z,97047.00
2019-03-01T07:14:02.134Z,97049.00
2019-03-01T07:16:29.089Z,97055.00
2019-03-01T07:19:03.147Z,97051.00
2019-03-01T07:21:30.077Z,97061.00
2019-03-01T07:24:03.240Z,97047.00
2019-03-01T07:26:30.179Z,97054.00
2019-03-01T07:29:04.046Z,97050.00
2019-03-01T07:31:30.973Z,97059.00
2019-03-01T07:34:04.831Z,97052.00
2019-03-01T07:36:31.775Z,97066.00
2019-03-01T07:39:05.670Z,97059.00
2019-03-01T07:41:32.669Z,97061.00
2019-03-01T07:44:06.534Z,97069.00
2019-03-01T07:46:33.482Z,97068.00
2019-03-01T07:49:07.437Z,97058.00
2019-03-01T07:51:40.634Z,97077.00
2019-03-01T07:54:16.715Z,97083.00
2019-03-01T07:56:42.998Z,97076.00
2019-03-01T07:59:16.828Z,97077.00
2019-03-01T08:01:43.766Z,97086.00
2019-03-01T08:04:17.856Z,97080.00
2019-03-01T08:06:45.534Z,97089.00
2019-03-01T08:09:19.893Z,97085.00
2019-03-01T08:11:46.833Z,97087.00
2019-03-01T08:14:20.070Z,97073.00
2019-03-01T08:16:46.998Z,97085.00
2019-03-01T08:19:17.077Z,97086.00
2019-03-01T08:22:03.007Z,97086.00
2019-03-01T08:24:36.482Z,97088.00
2019-03-01T08:27:06.469Z,97095.00
2019-03-01T08:29:40.441Z,97099.00
2019-03-01T08:32:07.548Z,97107.00
2019-03-01T08:34:35.206Z,97103.00
2019-03-01T08:37:09.233Z,97111.00
2019-03-01T08:39:36.563Z,97115.00
2019-03-01T08:42:11.288Z,97112.00
2019-03-01T08:44:38.241Z,97122.00
2019-03-01T08:47:12.164Z,97125.00
2019-03-01T08:49:39.110Z,97107.00
2019-03-01T08:52:12.260Z,97122.00
2019-03-01T08:54:39.197Z,97134.00
2019-03-01T08:57:13.158Z,97115.00
2019-03-01T08:59:40.105Z,97124.00
2019-03-01T09:02:13.177Z,97131.00
2019-03-01T09:04:40.143Z,97130.00
2019-03-01T09:07:13.187Z,97131.00
2019-03-01T09:09:40.125Z,97122.00
2019-03-01T09:12:13.441Z,97119.00
2019-03-01T09:14:40.381Z,97121.00
2019-03-01T09:17:13.890Z,97133.00
2019-03-01T09:19:40.831Z,97131.00
2019-03-01T09:22:14.780Z,97141.00
2019-03-01T09:24:41.745Z,97139.00
2019-03-01T09:27:14.902Z,97141.00
2019-03-01T09:29:42.326Z,97160.00
2019-03-01T09:32:16.247Z,97146.00
2019-03-01T09:34:43.193Z,97154.00
2019-03-01T09:37:17.069Z,97164.00
2019-03-01T09:39:44.010Z,97169.00
2019-03-01T09:42:17.320Z,97165.00
2019-03-01T09:44:50.999Z,97161.00
2019-03-01T09:47:24.175Z,97171.00
2019-03-01T09:49:51.127Z,97183.00
2019-03-01T09:52:25.192Z,97191.00
2019-03-01T09:54:52.140Z,97180.00
2019-03-01T09:57:25.349Z,97184.00
2019-03-01T09:59:52.273Z,97188.00
2019-03-01T10:02:25.298Z,97192.00
2019-03-01T10:04:52.237Z,97185.00
2019-03-01T10:07:19.183Z,97185.00
2019-03-01T10:09:53.226Z,97189.00
2019-03-01T10:12:20.179Z,97206.00
2019-03-01T10:14:53.210Z,97190.00
2019-03-01T10:17:20.168Z,97197.00
2019-03-01T10:19:53.181Z,97210.00
2019-03-01T10:22:20.121Z,97198.00
